sensor_id;sensor_type;location;lat;lon;timestamp;temperature;humidity
46043;DHT22;32533;-33.854;18.542;2022-07-24T00:00:30;14.60;71.30
46043;DHT22;32533;-33.854;18.542;2022-07-24T00:02:57;14.60;71.60
46043;DHT22;32533;-33.854;18.542;2022-07-24T00:05:23;14.50;71.80
46043;DHT22;32533;-33.854;18.542;2022-07-24T00:07:50;14.50;71.70
46043;DHT22;32533;-33.854;18.542;2022-07-24T00:10:16;14.50;71.50
46043;DHT22;32533;-33.854;18.542;2022-07-24T00:12:43;14.50;71.50
46043;DHT22;32533;-33.854;18.542;2022-07-24T00:15:10;14.50;71.80
46043;DHT22;32533;-33.854;18.542;2022-07-24T00:17:37;14.50;72.00
46043;DHT22;32533;-33.854;18.542;2022-07-24T00:20:05;14.50;71.90
46043;DHT22;32533;-33.854;18.542;2022-07-24T00:22:32;14.50;71.90
46043;DHT22;32533;-33.854;18.542;2022-07-24T00:24:59;14.50;71.80
46043;DHT22;32533;-33.854;18.542;2022-07-24T00:27:25;14.50;71.70
46043;DHT22;32533;-33.854;18.542;2022-07-24T00:29:52;14.50;71.80
46043;DHT22;32533;-33.854;18.542;2022-07-24T00:32:18;14.50;71.80
46043;DHT22;32533;-33.854;18.542;2022-07-24T00:34:45;14.50;71.80
46043;DHT22;32533;-33.854;18.542;2022-07-24T00:37:11;14.50;71.80
46043;DHT22;32533;-33.854;18.542;2022-07-24T00:39:38;14.40;72.20
46043;DHT22;32533;-33.854;18.542;2022-07-24T00:42:04;14.50;72.50
46043;DHT22;32533;-33.854;18.542;2022-07-24T00:44:31;14.40;72.40
46043;DHT22;32533;-33.854;18.542;2022-07-24T00:46:58;14.40;72.40
46043;DHT22;32533;-33.854;18.542;2022-07-24T00:49:24;14.40;72.40
46043;DHT22;32533;-33.854;18.542;2022-07-24T00:51:52;14.40;72.40
46043;DHT22;32533;-33.854;18.542;2022-07-24T00:54:20;14.40;72.60
46043;DHT22;32533;-33.854;18.542;2022-07-24T00:56:49;14.40;72.70
46043;DHT22;32533;-33.854;18.542;2022-07-24T00:59:16;14.30;72.70
46043;DHT22;32533;-33.854;18.542;2022-07-24T01:01:42;14.40;72.80
46043;DHT22;32533;-33.854;18.542;2022-07-24T01:04:09;14.30;72.70
46043;DHT22;32533;-33.854;18.542;2022-07-24T01:06:36;14.30;72.90
46043;DHT22;32533;-33.854;18.542;2022-07-24T01:09:03;14.30;72.90
46043;DHT22;32533;-33.854;18.542;2022-07-24T01:11:29;14.30;72.50
46043;DHT22;32533;-33.854;18.542;2022-07-24T01:13:56;14.30;73.00
46043;DHT22;32533;-33.854;18.542;2022-07-24T01:16:23;14.30;73.10
46043;DHT22;32533;-33.854;18.542;2022-07-24T01:18:50;14.30;73.10
46043;DHT22;32533;-33.854;18.542;2022-07-24T01:21:16;14.30;73.30
46043;DHT22;32533;-33.854;18.542;2022-07-24T01:23:43;14.30;73.30
46043;DHT22;32533;-33.854;18.542;2022-07-24T01:26:09;14.30;73.40
46043;DHT22;32533;-33.854;18.542;2022-07-24T01:28:36;14.30;73.40
46043;DHT22;32533;-33.854;18.542;2022-07-24T01:31:03;14.30;73.40
46043;DHT22;32533;-33.854;18.542;2022-07-24T01:33:30;14.30;73.60
46043;DHT22;32533;-33.854;18.542;2022-07-24T01:35:56;14.30;73.50
46043;DHT22;32533;-33.854;18.542;2022-07-24T01:38:23;14.30;73.40
46043;DHT22;32533;-33.854;18.542;2022-07-24T01:40:50;14.30;73.40
46043;DHT22;32533;-33.854;18.542;2022-07-24T01:43:16;14.30;73.50
46043;DHT22;32533;-33.854;18.542;2022-07-24T01:45:43;14.30;73.50
46043;DHT22;32533;-33.854;18.542;2022-07-24T01:48:09;14.30;73.40
46043;DHT22;32533;-33.854;18.542;2022-07-24T01:50:37;14.30;73.40
46043;DHT22;32533;-33.854;18.542;2022-07-24T01:53:03;14.30;73.80
46043;DHT22;32533;-33.854;18.542;2022-07-24T01:55:30;14.20;73.80
46043;DHT22;32533;-33.854;18.542;2022-07-24T01:57:57;14.20;73.80
46043;DHT22;32533;-33.854;18.542;2022-07-24T02:00:23;14.20;73.80
46043;DHT22;32533;-33.854;18.542;2022-07-24T02:02:50;14.20;73.80
46043;DHT22;32533;-33.854;18.542;2022-07-24T02:05:16;14.20;74.40
46043;DHT22;32533;-33.854;18.542;2022-07-24T02:07:44;14.20;74.20
46043;DHT22;32533;-33.854;18.542;2022-07-24T02:10:12;14.20;74.20
46043;DHT22;32533;-33.854;18.542;2022-07-24T02:12:39;14.20;74.20
46043;DHT22;32533;-33.854;18.542;2022-07-24T02:15:06;14.20;74.30
46043;DHT22;32533;-33.854;18.542;2022-07-24T02:17:33;14.20;74.50
46043;DHT22;32533;-33.854;18.542;2022-07-24T02:20:00;14.20;74.50
46043;DHT22;32533;-33.854;18.542;2022-07-24T02:22:27;14.20;74.40
46043;DHT22;32533;-33.854;18.542;2022-07-24T02:24:53;14.10;74.20
46043;DHT22;32533;-33.854;18.542;2022-07-24T02:27:19;14.10;74.20
46043;DHT22;32533;-33.854;18.542;2022-07-24T02:29:46;14.10;74.30
46043;DHT22;32533;-33.854;18.542;2022-07-24T02:32:12;14.10;74.40
46043;DHT22;32533;-33.854;18.542;2022-07-24T02:34:39;14.10;74.30
46043;DHT22;32533;-33.854;18.542;2022-07-24T02:37:05;14.10;74.20
46043;DHT22;32533;-33.854;18.542;2022-07-24T02:39:32;14.10;74.10
46043;DHT22;32533;-33.854;18.542;2022-07-24T02:41:58;14.00;74.10
46043;DHT22;32533;-33.854;18.542;2022-07-24T02:44:25;14.00;74.00
46043;DHT22;32533;-33.854;18.542;2022-07-24T02:46:51;14.10;73.90
46043;DHT22;32533;-33.854;18.542;2022-07-24T02:49:18;14.00;73.80
46043;DHT22;32533;-33.854;18.542;2022-07-24T02:51:44;14.00;73.70
46043;DHT22;32533;-33.854;18.542;2022-07-24T02:54:10;14.00;73.80
46043;DHT22;32533;-33.854;18.542;2022-07-24T02:56:37;14.00;74.40
46043;DHT22;32533;-33.854;18.542;2022-07-24T02:59:03;14.00;74.20
46043;DHT22;32533;-33.854;18.542;2022-07-24T03:01:30;14.00;74.20
46043;DHT22;32533;-33.854;18.542;2022-07-24T03:03:56;14.00;73.80
46043;DHT22;32533;-33.854;18.542;2022-07-24T03:06:23;13.90;73.30
46043;DHT22;32533;-33.854;18.542;2022-07-24T03:08:49;13.90;73.00
46043;DHT22;32533;-33.854;18.542;2022-07-24T03:11:16;13.90;72.80
46043;DHT22;32533;-33.854;18.542;2022-07-24T03:13:42;13.90;72.50
46043;DHT22;32533;-33.854;18.542;2022-07-24T03:16:09;13.90;72.40
46043;DHT22;32533;-33.854;18.542;2022-07-24T03:18:35;13.90;72.40
46043;DHT22;32533;-33.854;18.542;2022-07-24T03:21:02;13.80;72.30
46043;DHT22;32533;-33.854;18.542;2022-07-24T03:23:28;13.80;72.10
46043;DHT22;32533;-33.854;18.542;2022-07-24T03:25:55;13.90;72.90
46043;DHT22;32533;-33.854;18.542;2022-07-24T03:28:22;13.80;73.00
46043;DHT22;32533;-33.854;18.542;2022-07-24T03:30:48;13.90;72.80
46043;DHT22;32533;-33.854;18.542;2022-07-24T03:33:15;13.90;72.60
46043;DHT22;32533;-33.854;18.542;2022-07-24T03:35:41;13.80;72.40
46043;DHT22;32533;-33.854;18.542;2022-07-24T03:38:08;13.80;72.20
46043;DHT22;32533;-33.854;18.542;2022-07-24T03:40:34;13.80;72.10
46043;DHT22;32533;-33.854;18.542;2022-07-24T03:43:01;13.80;72.00
46043;DHT22;32533;-33.854;18.542;2022-07-24T03:45:28;13.80;71.90
46043;DHT22;32533;-33.854;18.542;2022-07-24T03:47:54;13.80;71.80
46043;DHT22;32533;-33.854;18.542;2022-07-24T03:50:21;13.80;71.90
46043;DHT22;32533;-33.854;18.542;2022-07-24T03:52:47;13.80;72.90
46043;DHT22;32533;-33.854;18.542;2022-07-24T03:55:14;13.80;73.60
46043;DHT22;32533;-33.854;18.542;2022-07-24T03:57:40;13.80;73.00
46043;DHT22;32533;-33.854;18.542;2022-07-24T04:00:07;13.80;72.50
46043;DHT22;32533;-33.854;18.542;2022-07-24T04:02:35;13.70;72.30
46043;DHT22;32533;-33.854;18.542;2022-07-24T04:05:02;13.70;72.30
46043;DHT22;32533;-33.854;18.542;2022-07-24T04:07:29;13.70;72.20
46043;DHT22;32533;-33.854;18.542;2022-07-24T04:09:55;13.70;72.10
46043;DHT22;32533;-33.854;18.542;2022-07-24T04:12:22;13.70;72.10
46043;DHT22;32533;-33.854;18.542;2022-07-24T04:14:48;13.70;72.30
46043;DHT22;32533;-33.854;18.542;2022-07-24T04:17:15;13.70;72.30
46043;DHT22;32533;-33.854;18.542;2022-07-24T04:19:41;13.70;72.30
46043;DHT22;32533;-33.854;18.542;2022-07-24T04:22:07;13.70;72.30
46043;DHT22;32533;-33.854;18.542;2022-07-24T04:24:34;13.60;72.50
46043;DHT22;32533;-33.854;18.542;2022-07-24T04:27:00;13.60;72.90
46043;DHT22;32533;-33.854;18.542;2022-07-24T04:29:27;13.60;72.80
46043;DHT22;32533;-33.854;18.542;2022-07-24T04:31:53;13.60;72.50
46043;DHT22;32533;-33.854;18.542;2022-07-24T04:34:20;13.60;72.60
46043;DHT22;32533;-33.854;18.542;2022-07-24T04:36:46;13.60;72.60
46043;DHT22;32533;-33.854;18.542;2022-07-24T04:39:13;13.70;72.80
46043;DHT22;32533;-33.854;18.542;2022-07-24T04:41:40;13.60;72.70
46043;DHT22;32533;-33.854;18.542;2022-07-24T04:44:07;13.60;72.70
46043;DHT22;32533;-33.854;18.542;2022-07-24T04:46:33;13.60;73.20
46043;DHT22;32533;-33.854;18.542;2022-07-24T04:49:00;13.60;72.50
46043;DHT22;32533;-33.854;18.542;2022-07-24T04:51:26;13.60;72.40
46043;DHT22;32533;-33.854;18.542;2022-07-24T04:53:52;13.60;72.70
46043;DHT22;32533;-33.854;18.542;2022-07-24T04:56:20;13.60;72.90
46043;DHT22;32533;-33.854;18.542;2022-07-24T04:58:47;13.60;72.70
46043;DHT22;32533;-33.854;18.542;2022-07-24T05:01:14;13.60;73.10
46043;DHT22;32533;-33.854;18.542;2022-07-24T05:03:40;13.70;73.20
46043;DHT22;32533;-33.854;18.542;2022-07-24T05:06:07;13.60;73.20
46043;DHT22;32533;-33.854;18.542;2022-07-24T05:08:34;13.60;73.20
46043;DHT22;32533;-33.854;18.542;2022-07-24T05:11:00;13.60;73.20
46043;DHT22;32533;-33.854;18.542;2022-07-24T05:13:27;13.60;73.30
46043;DHT22;32533;-33.854;18.542;2022-07-24T05:15:53;13.50;73.20
46043;DHT22;32533;-33.854;18.542;2022-07-24T05:18:21;13.50;73.20
46043;DHT22;32533;-33.854;18.542;2022-07-24T05:20:47;13.50;73.30
46043;DHT22;32533;-33.854;18.542;2022-07-24T05:23:14;13.50;73.40
46043;DHT22;32533;-33.854;18.542;2022-07-24T05:25:40;13.50;73.40
46043;DHT22;32533;-33.854;18.542;2022-07-24T05:28:06;13.50;73.40
46043;DHT22;32533;-33.854;18.542;2022-07-24T05:30:33;13.50;73.80
46043;DHT22;32533;-33.854;18.542;2022-07-24T05:32:59;13.40;73.80
46043;DHT22;32533;-33.854;18.542;2022-07-24T05:35:26;13.40;73.80
46043;DHT22;32533;-33.854;18.542;2022-07-24T05:37:52;13.40;74.50
46043;DHT22;32533;-33.854;18.542;2022-07-24T05:40:19;13.50;74.70
46043;DHT22;32533;-33.854;18.542;2022-07-24T05:42:45;13.50;74.70
46043;DHT22;32533;-33.854;18.542;2022-07-24T05:45:12;13.40;74.50
46043;DHT22;32533;-33.854;18.542;2022-07-24T05:47:39;13.50;74.70
46043;DHT22;32533;-33.854;18.542;2022-07-24T05:50:12;13.40;74.50
46043;DHT22;32533;-33.854;18.542;2022-07-24T05:52:39;13.40;74.40
46043;DHT22;32533;-33.854;18.542;2022-07-24T05:55:07;13.50;74.40
46043;DHT22;32533;-33.854;18.542;2022-07-24T05:57:34;13.40;74.10
46043;DHT22;32533;-33.854;18.542;2022-07-24T06:00:01;13.40;74.20
46043;DHT22;32533;-33.854;18.542;2022-07-24T06:02:27;13.40;74.30
46043;DHT22;32533;-33.854;18.542;2022-07-24T06:04:54;13.40;74.30
46043;DHT22;32533;-33.854;18.542;2022-07-24T06:07:20;13.40;74.40
46043;DHT22;32533;-33.854;18.542;2022-07-24T06:09:47;13.40;74.40
46043;DHT22;32533;-33.854;18.542;2022-07-24T06:12:13;13.40;74.30
46043;DHT22;32533;-33.854;18.542;2022-07-24T06:14:40;13.40;74.40
46043;DHT22;32533;-33.854;18.542;2022-07-24T06:17:06;13.40;74.40
46043;DHT22;32533;-33.854;18.542;2022-07-24T06:19:33;13.30;74.50
46043;DHT22;32533;-33.854;18.542;2022-07-24T06:21:59;13.30;74.80
46043;DHT22;32533;-33.854;18.542;2022-07-24T06:24:26;13.40;75.60
46043;DHT22;32533;-33.854;18.542;2022-07-24T06:26:52;13.50;75.40
46043;DHT22;32533;-33.854;18.542;2022-07-24T06:29:19;13.40;75.30
46043;DHT22;32533;-33.854;18.542;2022-07-24T06:31:45;13.40;75.40
46043;DHT22;32533;-33.854;18.542;2022-07-24T06:34:11;13.50;75.50
46043;DHT22;32533;-33.854;18.542;2022-07-24T06:36:38;13.50;75.50
46043;DHT22;32533;-33.854;18.542;2022-07-24T06:39:04;13.40;75.50
46043;DHT22;32533;-33.854;18.542;2022-07-24T06:41:31;13.40;75.80
46043;DHT22;32533;-33.854;18.542;2022-07-24T06:43:57;13.40;75.90
46043;DHT22;32533;-33.854;18.542;2022-07-24T06:46:25;13.40;76.00
46043;DHT22;32533;-33.854;18.542;2022-07-24T06:48:52;13.40;76.20
46043;DHT22;32533;-33.854;18.542;2022-07-24T06:51:19;13.40;76.80
46043;DHT22;32533;-33.854;18.542;2022-07-24T06:53:45;13.50;76.20
46043;DHT22;32533;-33.854;18.542;2022-07-24T06:56:13;13.50;76.30
46043;DHT22;32533;-33.854;18.542;2022-07-24T06:58:39;13.50;76.40
46043;DHT22;32533;-33.854;18.542;2022-07-24T07:01:06;13.50;76.50
46043;DHT22;32533;-33.854;18.542;2022-07-24T07:03:32;13.50;76.70
46043;DHT22;32533;-33.854;18.542;2022-07-24T07:05:59;13.50;77.00
46043;DHT22;32533;-33.854;18.542;2022-07-24T07:08:25;13.50;77.00
46043;DHT22;32533;-33.854;18.542;2022-07-24T07:10:52;13.50;77.10
46043;DHT22;32533;-33.854;18.542;2022-07-24T07:13:18;13.50;77.20
46043;DHT22;32533;-33.854;18.542;2022-07-24T07:15:45;13.60;77.20
46043;DHT22;32533;-33.854;18.542;2022-07-24T07:18:11;13.60;77.20
46043;DHT22;32533;-33.854;18.542;2022-07-24T07:20:38;13.60;77.30
46043;DHT22;32533;-33.854;18.542;2022-07-24T07:23:04;13.60;77.60
46043;DHT22;32533;-33.854;18.542;2022-07-24T07:25:31;13.70;77.90
46043;DHT22;32533;-33.854;18.542;2022-07-24T07:27:57;13.70;78.30
46043;DHT22;32533;-33.854;18.542;2022-07-24T07:30:24;13.70;78.60
46043;DHT22;32533;-33.854;18.542;2022-07-24T07:32:50;13.80;79.00
46043;DHT22;32533;-33.854;18.542;2022-07-24T07:35:17;13.80;78.90
46043;DHT22;32533;-33.854;18.542;2022-07-24T07:37:46;13.90;78.80
46043;DHT22;32533;-33.854;18.542;2022-07-24T07:40:13;13.90;79.00
46043;DHT22;32533;-33.854;18.542;2022-07-24T07:42:39;13.90;79.00
46043;DHT22;32533;-33.854;18.542;2022-07-24T07:45:06;14.00;78.90
46043;DHT22;32533;-33.854;18.542;2022-07-24T07:47:36;14.00;78.90
46043;DHT22;32533;-33.854;18.542;2022-07-24T07:50:04;14.00;78.80
46043;DHT22;32533;-33.854;18.542;2022-07-24T07:52:30;14.10;78.20
46043;DHT22;32533;-33.854;18.542;2022-07-24T07:54:57;14.10;77.70
46043;DHT22;32533;-33.854;18.542;2022-07-24T07:57:24;14.10;77.30
46043;DHT22;32533;-33.854;18.542;2022-07-24T07:59:50;14.20;77.70
46043;DHT22;32533;-33.854;18.542;2022-07-24T08:02:17;14.20;77.80
46043;DHT22;32533;-33.854;18.542;2022-07-24T08:04:43;14.20;77.80
46043;DHT22;32533;-33.854;18.542;2022-07-24T08:07:10;14.20;77.90
46043;DHT22;32533;-33.854;18.542;2022-07-24T08:09:36;14.30;77.70
46043;DHT22;32533;-33.854;18.542;2022-07-24T08:12:04;14.30;77.80
46043;DHT22;32533;-33.854;18.542;2022-07-24T08:14:31;14.30;77.60
46043;DHT22;32533;-33.854;18.542;2022-07-24T08:16:58;14.40;77.40
46043;DHT22;32533;-33.854;18.542;2022-07-24T08:19:24;14.40;77.30
46043;DHT22;32533;-33.854;18.542;2022-07-24T08:21:51;14.50;77.30
46043;DHT22;32533;-33.854;18.542;2022-07-24T08:24:17;14.40;77.20
46043;DHT22;32533;-33.854;18.542;2022-07-24T08:26:50;14.50;77.20
46043;DHT22;32533;-33.854;18.542;2022-07-24T08:29:17;14.50;77.00
46043;DHT22;32533;-33.854;18.542;2022-07-24T08:31:43;14.50;76.90
46043;DHT22;32533;-33.854;18.542;2022-07-24T08:34:10;14.50;76.80
46043;DHT22;32533;-33.854;18.542;2022-07-24T08:36:36;14.60;77.00
46043;DHT22;32533;-33.854;18.542;2022-07-24T08:39:04;14.60;76.80
46043;DHT22;32533;-33.854;18.542;2022-07-24T08:41:31;14.70;76.50
46043;DHT22;32533;-33.854;18.542;2022-07-24T08:44:04;14.70;76.20
46043;DHT22;32533;-33.854;18.542;2022-07-24T08:46:31;14.80;76.00
46043;DHT22;32533;-33.854;18.542;2022-07-24T08:48:59;14.80;75.90
46043;DHT22;32533;-33.854;18.542;2022-07-24T08:51:33;14.90;75.90
46043;DHT22;32533;-33.854;18.542;2022-07-24T08:54:00;14.90;75.80
46043;DHT22;32533;-33.854;18.542;2022-07-24T08:56:28;15.00;75.70
46043;DHT22;32533;-33.854;18.542;2022-07-24T08:58:55;15.00;75.20
46043;DHT22;32533;-33.854;18.542;2022-07-24T09:01:22;15.10;75.20
46043;DHT22;32533;-33.854;18.542;2022-07-24T09:03:49;15.10;74.60
46043;DHT22;32533;-33.854;18.542;2022-07-24T09:06:15;15.20;74.10
46043;DHT22;32533;-33.854;18.542;2022-07-24T09:08:44;15.10;73.50
46043;DHT22;32533;-33.854;18.542;2022-07-24T09:11:22;15.20;73.30
46043;DHT22;32533;-33.854;18.542;2022-07-24T09:13:58;15.20;73.80
46043;DHT22;32533;-33.854;18.542;2022-07-24T09:16:43;15.30;73.20
46043;DHT22;32533;-33.854;18.542;2022-07-24T09:19:09;15.30;72.90
46043;DHT22;32533;-33.854;18.542;2022-07-24T09:21:39;15.30;72.60
46043;DHT22;32533;-33.854;18.542;2022-07-24T09:24:14;15.40;72.10
46043;DHT22;32533;-33.854;18.542;2022-07-24T09:26:48;15.40;71.90
46043;DHT22;32533;-33.854;18.542;2022-07-24T09:29:17;15.50;71.80
46043;DHT22;32533;-33.854;18.542;2022-07-24T09:32:01;15.50;71.60
46043;DHT22;32533;-33.854;18.542;2022-07-24T09:34:37;15.60;71.50
46043;DHT22;32533;-33.854;18.542;2022-07-24T09:37:08;15.60;71.00
46043;DHT22;32533;-33.854;18.542;2022-07-24T09:39:36;15.70;70.90
46043;DHT22;32533;-33.854;18.542;2022-07-24T09:42:29;15.70;70.80
46043;DHT22;32533;-33.854;18.542;2022-07-24T09:44:59;15.80;70.10
46043;DHT22;32533;-33.854;18.542;2022-07-24T09:47:29;15.80;70.50
46043;DHT22;32533;-33.854;18.542;2022-07-24T09:50:11;15.90;69.30
46043;DHT22;32533;-33.854;18.542;2022-07-24T09:52:41;15.90;69.20
46043;DHT22;32533;-33.854;18.542;2022-07-24T09:55:23;16.00;69.10
46043;DHT22;32533;-33.854;18.542;2022-07-24T09:57:50;16.00;68.50
46043;DHT22;32533;-33.854;18.542;2022-07-24T10:00:17;16.10;68.10
46043;DHT22;32533;-33.854;18.542;2022-07-24T10:02:44;16.10;67.20
46043;DHT22;32533;-33.854;18.542;2022-07-24T10:05:12;16.10;67.10
46043;DHT22;32533;-33.854;18.542;2022-07-24T10:07:39;16.20;66.90
46043;DHT22;32533;-33.854;18.542;2022-07-24T10:10:06;16.20;66.10
46043;DHT22;32533;-33.854;18.542;2022-07-24T10:12:33;16.30;66.00
46043;DHT22;32533;-33.854;18.542;2022-07-24T10:15:01;16.30;65.50
46043;DHT22;32533;-33.854;18.542;2022-07-24T10:20:43;16.50;64.90
46043;DHT22;32533;-33.854;18.542;2022-07-24T10:23:22;16.50;64.60
46043;DHT22;32533;-33.854;18.542;2022-07-24T10:26:07;16.50;64.00
46043;DHT22;32533;-33.854;18.542;2022-07-24T10:28:42;16.60;63.30
46043;DHT22;32533;-33.854;18.542;2022-07-24T10:31:10;16.60;63.20
46043;DHT22;32533;-33.854;18.542;2022-07-24T10:33:39;16.60;62.90
46043;DHT22;32533;-33.854;18.542;2022-07-24T10:36:27;16.70;62.40
46043;DHT22;32533;-33.854;18.542;2022-07-24T10:39:05;16.80;62.50
46043;DHT22;32533;-33.854;18.542;2022-07-24T10:41:35;16.80;62.20
46043;DHT22;32533;-33.854;18.542;2022-07-24T10:44:18;16.90;62.10
46043;DHT22;32533;-33.854;18.542;2022-07-24T10:49:40;16.90;61.30
46043;DHT22;32533;-33.854;18.542;2022-07-24T10:52:30;17.00;61.20
46043;DHT22;32533;-33.854;18.542;2022-07-24T10:55:25;17.10;60.50
46043;DHT22;32533;-33.854;18.542;2022-07-24T11:00:46;17.30;60.90
46043;DHT22;32533;-33.854;18.542;2022-07-24T11:03:20;17.30;60.30
46043;DHT22;32533;-33.854;18.542;2022-07-24T11:06:06;17.40;60.00
46043;DHT22;32533;-33.854;18.542;2022-07-24T11:08:38;17.50;59.90
46043;DHT22;32533;-33.854;18.542;2022-07-24T11:11:10;17.50;59.70
46043;DHT22;32533;-33.854;18.542;2022-07-24T11:21:42;17.80;57.90
46043;DHT22;32533;-33.854;18.542;2022-07-24T11:26:52;17.90;57.80
46043;DHT22;32533;-33.854;18.542;2022-07-24T11:29:31;17.90;57.80
46043;DHT22;32533;-33.854;18.542;2022-07-24T11:32:08;18.00;57.10
46043;DHT22;32533;-33.854;18.542;2022-07-24T11:34:37;18.00;56.70
46043;DHT22;32533;-33.854;18.542;2022-07-24T11:37:05;18.00;56.60
46043;DHT22;32533;-33.854;18.542;2022-07-24T11:39:37;18.10;56.50
46043;DHT22;32533;-33.854;18.542;2022-07-24T11:42:10;18.10;56.60
46043;DHT22;32533;-33.854;18.542;2022-07-24T11:44:39;18.10;56.80
46043;DHT22;32533;-33.854;18.542;2022-07-24T11:47:09;18.20;57.30
46043;DHT22;32533;-33.854;18.542;2022-07-24T11:49:44;18.20;57.50
46043;DHT22;32533;-33.854;18.542;2022-07-24T11:52:27;18.20;57.00
46043;DHT22;32533;-33.854;18.542;2022-07-24T11:54:56;18.30;56.40
46043;DHT22;32533;-33.854;18.542;2022-07-24T11:57:29;18.30;56.40
46043;DHT22;32533;-33.854;18.542;2022-07-24T11:59:56;18.30;56.20
46043;DHT22;32533;-33.854;18.542;2022-07-24T12:02:23;18.40;55.00
46043;DHT22;32533;-33.854;18.542;2022-07-24T12:04:51;18.40;54.90
46043;DHT22;32533;-33.854;18.542;2022-07-24T12:07:20;18.50;55.40
46043;DHT22;32533;-33.854;18.542;2022-07-24T12:09:58;18.50;56.00
46043;DHT22;32533;-33.854;18.542;2022-07-24T12:12:30;18.60;56.30
46043;DHT22;32533;-33.854;18.542;2022-07-24T12:18:06;18.70;54.90
46043;DHT22;32533;-33.854;18.542;2022-07-24T12:20:43;18.80;54.60
46043;DHT22;32533;-33.854;18.542;2022-07-24T12:23:11;18.80;53.90
46043;DHT22;32533;-33.854;18.542;2022-07-24T12:25:39;18.80;53.40
46043;DHT22;32533;-33.854;18.542;2022-07-24T12:28:17;18.90;53.30
46043;DHT22;32533;-33.854;18.542;2022-07-24T12:30:52;18.90;52.90
46043;DHT22;32533;-33.854;18.542;2022-07-24T12:33:22;18.90;52.80
46043;DHT22;32533;-33.854;18.542;2022-07-24T12:35:57;18.90;52.70
46043;DHT22;32533;-33.854;18.542;2022-07-24T12:38:33;19.00;52.80
46043;DHT22;32533;-33.854;18.542;2022-07-24T12:41:11;19.00;54.10
46043;DHT22;32533;-33.854;18.542;2022-07-24T12:43:58;19.10;53.80
46043;DHT22;32533;-33.854;18.542;2022-07-24T12:46:35;19.20;53.10
46043;DHT22;32533;-33.854;18.542;2022-07-24T12:49:10;19.30;50.90
46043;DHT22;32533;-33.854;18.542;2022-07-24T12:52:19;19.50;50.60
46043;DHT22;32533;-33.854;18.542;2022-07-24T12:54:47;19.60;52.20
46043;DHT22;32533;-33.854;18.542;2022-07-24T12:57:14;19.50;52.90
46043;DHT22;32533;-33.854;18.542;2022-07-24T12:59:45;19.50;53.60
46043;DHT22;32533;-33.854;18.542;2022-07-24T13:02:14;19.40;54.00
46043;DHT22;32533;-33.854;18.542;2022-07-24T13:04:43;19.40;54.10
46043;DHT22;32533;-33.854;18.542;2022-07-24T13:07:10;19.40;54.40
46043;DHT22;32533;-33.854;18.542;2022-07-24T13:09:37;19.40;54.20
46043;DHT22;32533;-33.854;18.542;2022-07-24T13:12:05;19.40;54.20
46043;DHT22;32533;-33.854;18.542;2022-07-24T13:14:32;19.30;54.00
46043;DHT22;32533;-33.854;18.542;2022-07-24T13:17:09;19.30;54.30
46043;DHT22;32533;-33.854;18.542;2022-07-24T13:19:44;19.30;54.40
46043;DHT22;32533;-33.854;18.542;2022-07-24T13:22:10;19.30;54.60
46043;DHT22;32533;-33.854;18.542;2022-07-24T13:24:37;19.30;54.90
46043;DHT22;32533;-33.854;18.542;2022-07-24T13:27:06;19.30;54.70
46043;DHT22;32533;-33.854;18.542;2022-07-24T13:29:32;19.30;54.90
46043;DHT22;32533;-33.854;18.542;2022-07-24T13:32:03;19.40;53.00
46043;DHT22;32533;-33.854;18.542;2022-07-24T13:34:29;19.40;52.70
46043;DHT22;32533;-33.854;18.542;2022-07-24T13:36:56;19.40;52.90
46043;DHT22;32533;-33.854;18.542;2022-07-24T13:39:23;19.40;52.90
46043;DHT22;32533;-33.854;18.542;2022-07-24T13:41:49;19.40;53.20
46043;DHT22;32533;-33.854;18.542;2022-07-24T13:44:16;19.40;53.20
46043;DHT22;32533;-33.854;18.542;2022-07-24T13:46:43;19.40;53.00
46043;DHT22;32533;-33.854;18.542;2022-07-24T13:49:10;19.40;52.50
46043;DHT22;32533;-33.854;18.542;2022-07-24T13:51:37;19.40;52.30
46043;DHT22;32533;-33.854;18.542;2022-07-24T13:54:13;19.40;52.60
46043;DHT22;32533;-33.854;18.542;2022-07-24T13:56:40;19.40;53.60
46043;DHT22;32533;-33.854;18.542;2022-07-24T13:59:06;19.40;55.00
46043;DHT22;32533;-33.854;18.542;2022-07-24T14:01:33;19.40;55.00
46043;DHT22;32533;-33.854;18.542;2022-07-24T14:04:00;19.40;55.10
46043;DHT22;32533;-33.854;18.542;2022-07-24T14:06:27;19.40;54.80
46043;DHT22;32533;-33.854;18.542;2022-07-24T14:08:56;19.40;54.90
46043;DHT22;32533;-33.854;18.542;2022-07-24T14:11:23;19.40;55.00
46043;DHT22;32533;-33.854;18.542;2022-07-24T14:13:49;19.40;55.10
46043;DHT22;32533;-33.854;18.542;2022-07-24T14:16:16;19.40;55.50
46043;DHT22;32533;-33.854;18.542;2022-07-24T14:18:42;19.30;56.00
46043;DHT22;32533;-33.854;18.542;2022-07-24T14:21:09;19.30;55.70
46043;DHT22;32533;-33.854;18.542;2022-07-24T14:23:35;19.30;55.80
46043;DHT22;32533;-33.854;18.542;2022-07-24T14:26:02;19.30;56.00
46043;DHT22;32533;-33.854;18.542;2022-07-24T14:28:28;19.20;56.10
46043;DHT22;32533;-33.854;18.542;2022-07-24T14:30:54;19.10;56.70
46043;DHT22;32533;-33.854;18.542;2022-07-24T14:33:21;19.00;56.90
46043;DHT22;32533;-33.854;18.542;2022-07-24T14:35:47;19.00;57.10
46043;DHT22;32533;-33.854;18.542;2022-07-24T14:38:15;19.00;57.50
46043;DHT22;32533;-33.854;18.542;2022-07-24T14:40:41;18.90;57.70
46043;DHT22;32533;-33.854;18.542;2022-07-24T14:43:08;18.90;57.90
46043;DHT22;32533;-33.854;18.542;2022-07-24T14:45:35;18.90;57.80
46043;DHT22;32533;-33.854;18.542;2022-07-24T14:48:01;18.80;57.20
46043;DHT22;32533;-33.854;18.542;2022-07-24T14:50:28;18.80;57.10
46043;DHT22;32533;-33.854;18.542;2022-07-24T14:52:54;18.80;57.90
46043;DHT22;32533;-33.854;18.542;2022-07-24T14:55:21;18.80;58.10
46043;DHT22;32533;-33.854;18.542;2022-07-24T14:57:47;18.70;58.80
46043;DHT22;32533;-33.854;18.542;2022-07-24T15:00:14;18.70;59.10
46043;DHT22;32533;-33.854;18.542;2022-07-24T15:02:40;18.70;58.50
46043;DHT22;32533;-33.854;18.542;2022-07-24T15:05:07;18.60;58.10
46043;DHT22;32533;-33.854;18.542;2022-07-24T15:07:34;18.60;57.90
46043;DHT22;32533;-33.854;18.542;2022-07-24T15:10:00;18.50;57.70
46043;DHT22;32533;-33.854;18.542;2022-07-24T15:12:26;18.50;57.60
46043;DHT22;32533;-33.854;18.542;2022-07-24T15:14:53;18.40;57.90
46043;DHT22;32533;-33.854;18.542;2022-07-24T15:17:20;18.40;57.90
46043;DHT22;32533;-33.854;18.542;2022-07-24T15:19:46;18.30;58.60
46043;DHT22;32533;-33.854;18.542;2022-07-24T15:22:13;18.30;59.10
46043;DHT22;32533;-33.854;18.542;2022-07-24T15:24:39;18.30;59.40
46043;DHT22;32533;-33.854;18.542;2022-07-24T15:27:05;18.20;59.40
46043;DHT22;32533;-33.854;18.542;2022-07-24T15:29:32;18.20;59.70
46043;DHT22;32533;-33.854;18.542;2022-07-24T15:31:59;18.20;60.60